Bafra, Turkey
Current Conditions -  °F | °C
As of 3:50 AM on Tuesday 23 Dec 2014 (Local Time) from LTFH Reporting Station
Broken Clouds Broken Clouds  
Wind Chill: 32°   Ceiling: 20000
Heat Index: 36°   Visibility: 6mi
Dew Point: 32°   Wind: 5mph
Humidity: 87%   Direction: 120°ESE
Pressure: 30.15"   Gusts: NA
Location:  41.57°N, 35.89°E
Report Text: LTFH 230050Z 12004KT 9999 FEW033 SCT100 BKN200 02/M00 Q1021 NOSIG
Loading
Personal Weather Stations






























Interactive Weather Map New forecast layout! Learn more

10-Day Weather Forecast

Advertisements
Track Severe Weather on mobile